sensor_id;sensor_type;location;lat;lon;timestamp;P1;durP1;ratioP1;P2;durP2;ratioP2
2289;SDS011;1153;47.986;7.898;2023-11-21T00:02:22;1.57;;;0.90;;
2289;SDS011;1153;47.986;7.898;2023-11-21T00:04:47;1.07;;;0.40;;
2289;SDS011;1153;47.986;7.898;2023-11-21T00:07:13;3.27;;;0.30;;
2289;SDS011;1153;47.986;7.898;2023-11-21T00:09:38;2.00;;;0.80;;
2289;SDS011;1153;47.986;7.898;2023-11-21T00:12:03;3.77;;;0.40;;
2289;SDS011;1153;47.986;7.898;2023-11-21T00:14:28;3.10;;;0.90;;
2289;SDS011;1153;47.986;7.898;2023-11-21T00:16:54;0.60;;;0.20;;
2289;SDS011;1153;47.986;7.898;2023-11-21T00:19:19;7.57;;;0.40;;
2289;SDS011;1153;47.986;7.898;2023-11-21T00:21:44;0.70;;;0.40;;
2289;SDS011;1153;47.986;7.898;2023-11-21T00:24:10;0.93;;;0.20;;
2289;SDS011;1153;47.986;7.898;2023-11-21T00:26:35;0.60;;;0.20;;
2289;SDS011;1153;47.986;7.898;2023-11-21T00:29:02;2.83;;;0.30;;
2289;SDS011;1153;47.986;7.898;2023-11-21T00:31:28;4.27;;;0.30;;
2289;SDS011;1153;47.986;7.898;2023-11-21T00:33:53;1.88;;;0.30;;
2289;SDS011;1153;47.986;7.898;2023-11-21T00:36:19;0.40;;;0.20;;
2289;SDS011;1153;47.986;7.898;2023-11-21T00:38:44;1.58;;;0.30;;
2289;SDS011;1153;47.986;7.898;2023-11-21T00:41:10;2.95;;;1.13;;
2289;SDS011;1153;47.986;7.898;2023-11-21T00:43:35;0.63;;;0.20;;
2289;SDS011;1153;47.986;7.898;2023-11-21T00:46:03;0.40;;;0.20;;
2289;SDS011;1153;47.986;7.898;2023-11-21T00:48:28;8.13;;;0.33;;
2289;SDS011;1153;47.986;7.898;2023-11-21T00:50:53;2.88;;;0.30;;
2289;SDS011;1153;47.986;7.898;2023-11-21T00:53:21;1.33;;;0.30;;
2289;SDS011;1153;47.986;7.898;2023-11-21T00:55:46;2.97;;;0.30;;
2289;SDS011;1153;47.986;7.898;2023-11-21T00:58:11;0.50;;;0.30;;
2289;SDS011;1153;47.986;7.898;2023-11-21T01:00:36;1.10;;;0.63;;
2289;SDS011;1153;47.986;7.898;2023-11-21T01:03:04;0.60;;;0.30;;
2289;SDS011;1153;47.986;7.898;2023-11-21T01:05:29;1.00;;;0.20;;
2289;SDS011;1153;47.986;7.898;2023-11-21T01:07:54;1.85;;;0.50;;
2289;SDS011;1153;47.986;7.898;2023-11-21T01:10:20;0.50;;;0.30;;
2289;SDS011;1153;47.986;7.898;2023-11-21T01:12:45;0.43;;;0.20;;
2289;SDS011;1153;47.986;7.898;2023-11-21T01:15:10;0.60;;;0.20;;
2289;SDS011;1153;47.986;7.898;2023-11-21T01:17:37;5.03;;;0.40;;
2289;SDS011;1153;47.986;7.898;2023-11-21T01:20:03;3.33;;;0.33;;
2289;SDS011;1153;47.986;7.898;2023-11-21T01:22:31;0.40;;;0.20;;
2289;SDS011;1153;47.986;7.898;2023-11-21T01:24:56;1.57;;;0.27;;
2289;SDS011;1153;47.986;7.898;2023-11-21T01:27:22;0.57;;;0.20;;
2289;SDS011;1153;47.986;7.898;2023-11-21T01:29:48;0.50;;;0.23;;
2289;SDS011;1153;47.986;7.898;2023-11-21T01:32:13;1.00;;;0.20;;
2289;SDS011;1153;47.986;7.898;2023-11-21T01:34:38;2.10;;;0.40;;
2289;SDS011;1153;47.986;7.898;2023-11-21T01:37:03;3.80;;;0.37;;
2289;SDS011;1153;47.986;7.898;2023-11-21T01:39:30;0.90;;;0.30;;
2289;SDS011;1153;47.986;7.898;2023-11-21T01:41:56;0.60;;;0.20;;
2289;SDS011;1153;47.986;7.898;2023-11-21T01:44:23;2.30;;;0.20;;
2289;SDS011;1153;47.986;7.898;2023-11-21T01:46:49;0.40;;;0.20;;
2289;SDS011;1153;47.986;7.898;2023-11-21T01:49:14;0.50;;;0.20;;
2289;SDS011;1153;47.986;7.898;2023-11-21T01:51:41;1.00;;;0.60;;
2289;SDS011;1153;47.986;7.898;2023-11-21T01:54:06;0.40;;;0.20;;
2289;SDS011;1153;47.986;7.898;2023-11-21T01:56:32;2.30;;;0.30;;
2289;SDS011;1153;47.986;7.898;2023-11-21T01:58:57;2.57;;;0.33;;
2289;SDS011;1153;47.986;7.898;2023-11-21T02:01:22;4.20;;;0.20;;
2289;SDS011;1153;47.986;7.898;2023-11-21T02:03:48;0.53;;;0.20;;
2289;SDS011;1153;47.986;7.898;2023-11-21T02:06:13;0.40;;;0.20;;
2289;SDS011;1153;47.986;7.898;2023-11-21T02:08:38;0.50;;;0.20;;
2289;SDS011;1153;47.986;7.898;2023-11-21T02:11:04;1.07;;;0.60;;
2289;SDS011;1153;47.986;7.898;2023-11-21T02:13:30;0.40;;;0.20;;
2289;SDS011;1153;47.986;7.898;2023-11-21T02:15:56;0.47;;;0.20;;
2289;SDS011;1153;47.986;7.898;2023-11-21T02:18:21;0.60;;;0.57;;
2289;SDS011;1153;47.986;7.898;2023-11-21T02:20:47;1.00;;;0.20;;
2289;SDS011;1153;47.986;7.898;2023-11-21T02:23:12;0.50;;;0.20;;
2289;SDS011;1153;47.986;7.898;2023-11-21T02:25:37;3.00;;;0.27;;
2289;SDS011;1153;47.986;7.898;2023-11-21T02:28:03;0.50;;;0.20;;
2289;SDS011;1153;47.986;7.898;2023-11-21T02:30:28;0.40;;;0.20;;
2289;SDS011;1153;47.986;7.898;2023-11-21T02:32:54;0.50;;;0.20;;
2289;SDS011;1153;47.986;7.898;2023-11-21T02:35:19;0.90;;;0.20;;
2289;SDS011;1153;47.986;7.898;2023-11-21T02:37:47;0.77;;;0.20;;
2289;SDS011;1153;47.986;7.898;2023-11-21T02:40:13;0.50;;;0.30;;
2289;SDS011;1153;47.986;7.898;2023-11-21T02:42:39;0.40;;;0.20;;
2289;SDS011;1153;47.986;7.898;2023-11-21T02:45:04;0.40;;;0.20;;
2289;SDS011;1153;47.986;7.898;2023-11-21T02:47:30;0.40;;;0.20;;
2289;SDS011;1153;47.986;7.898;2023-11-21T02:49:55;0.60;;;0.20;;
2289;SDS011;1153;47.986;7.898;2023-11-21T02:52:21;1.10;;;0.30;;
2289;SDS011;1153;47.986;7.898;2023-11-21T02:54:46;0.60;;;0.20;;
2289;SDS011;1153;47.986;7.898;2023-11-21T02:57:11;0.70;;;0.20;;
2289;SDS011;1153;47.986;7.898;2023-11-21T02:59:36;0.47;;;0.20;;
2289;SDS011;1153;47.986;7.898;2023-11-21T03:02:02;0.40;;;0.20;;
2289;SDS011;1153;47.986;7.898;2023-11-21T03:04:27;0.70;;;0.20;;
2289;SDS011;1153;47.986;7.898;2023-11-21T03:06:52;0.50;;;0.20;;
2289;SDS011;1153;47.986;7.898;2023-11-21T03:09:17;0.40;;;0.20;;
2289;SDS011;1153;47.986;7.898;2023-11-21T03:11:42;2.40;;;0.20;;
2289;SDS011;1153;47.986;7.898;2023-11-21T03:14:07;0.40;;;0.20;;
2289;SDS011;1153;47.986;7.898;2023-11-21T03:16:32;0.83;;;0.20;;
2289;SDS011;1153;47.986;7.898;2023-11-21T03:18:58;0.50;;;0.30;;
2289;SDS011;1153;47.986;7.898;2023-11-21T03:21:23;0.40;;;0.20;;
2289;SDS011;1153;47.986;7.898;2023-11-21T03:23:49;3.47;;;0.20;;
2289;SDS011;1153;47.986;7.898;2023-11-21T03:26:14;0.43;;;0.20;;
2289;SDS011;1153;47.986;7.898;2023-11-21T03:28:39;0.73;;;0.20;;
2289;SDS011;1153;47.986;7.898;2023-11-21T03:31:04;1.30;;;0.20;;
2289;SDS011;1153;47.986;7.898;2023-11-21T03:33:31;0.50;;;0.20;;
2289;SDS011;1153;47.986;7.898;2023-11-21T03:35:56;0.40;;;0.20;;
2289;SDS011;1153;47.986;7.898;2023-11-21T03:38:21;1.90;;;0.30;;
2289;SDS011;1153;47.986;7.898;2023-11-21T03:40:46;0.40;;;0.20;;
2289;SDS011;1153;47.986;7.898;2023-11-21T03:43:12;1.23;;;0.20;;
2289;SDS011;1153;47.986;7.898;2023-11-21T03:45:38;2.60;;;0.20;;
2289;SDS011;1153;47.986;7.898;2023-11-21T03:48:05;0.40;;;0.20;;
2289;SDS011;1153;47.986;7.898;2023-11-21T03:50:30;1.42;;;0.20;;
2289;SDS011;1153;47.986;7.898;2023-11-21T03:52:56;1.70;;;0.20;;
2289;SDS011;1153;47.986;7.898;2023-11-21T03:55:21;0.53;;;0.20;;
2289;SDS011;1153;47.986;7.898;2023-11-21T03:57:48;0.50;;;0.30;;
2289;SDS011;1153;47.986;7.898;2023-11-21T04:00:13;0.60;;;0.20;;
2289;SDS011;1153;47.986;7.898;2023-11-21T04:02:38;0.50;;;0.20;;
2289;SDS011;1153;47.986;7.898;2023-11-21T04:05:04;0.40;;;0.20;;
2289;SDS011;1153;47.986;7.898;2023-11-21T04:07:30;0.67;;;0.20;;
2289;SDS011;1153;47.986;7.898;2023-11-21T04:09:55;0.50;;;0.20;;
2289;SDS011;1153;47.986;7.898;2023-11-21T04:12:20;0.53;;;0.20;;
2289;SDS011;1153;47.986;7.898;2023-11-21T04:14:45;0.40;;;0.20;;
2289;SDS011;1153;47.986;7.898;2023-11-21T04:17:10;0.50;;;0.20;;
2289;SDS011;1153;47.986;7.898;2023-11-21T04:19:35;3.80;;;0.33;;
2289;SDS011;1153;47.986;7.898;2023-11-21T04:22:01;0.50;;;0.20;;
2289;SDS011;1153;47.986;7.898;2023-11-21T04:24:26;0.50;;;0.20;;
2289;SDS011;1153;47.986;7.898;2023-11-21T04:26:51;0.40;;;0.20;;
2289;SDS011;1153;47.986;7.898;2023-11-21T04:29:17;0.40;;;0.20;;
2289;SDS011;1153;47.986;7.898;2023-11-21T04:31:42;2.40;;;0.23;;
2289;SDS011;1153;47.986;7.898;2023-11-21T04:34:08;0.50;;;0.20;;
2289;SDS011;1153;47.986;7.898;2023-11-21T04:36:33;0.83;;;0.23;;
2289;SDS011;1153;47.986;7.898;2023-11-21T04:38:59;0.40;;;0.20;;
2289;SDS011;1153;47.986;7.898;2023-11-21T04:41:24;0.50;;;0.30;;
2289;SDS011;1153;47.986;7.898;2023-11-21T04:43:50;0.80;;;0.30;;
2289;SDS011;1153;47.986;7.898;2023-11-21T04:46:15;1.40;;;0.20;;
2289;SDS011;1153;47.986;7.898;2023-11-21T04:48:40;0.47;;;0.20;;
2289;SDS011;1153;47.986;7.898;2023-11-21T04:51:05;0.40;;;0.30;;
2289;SDS011;1153;47.986;7.898;2023-11-21T04:53:31;0.50;;;0.20;;
2289;SDS011;1153;47.986;7.898;2023-11-21T04:55:56;0.60;;;0.20;;
2289;SDS011;1153;47.986;7.898;2023-11-21T04:58:21;6.68;;;0.50;;
2289;SDS011;1153;47.986;7.898;2023-11-21T05:00:47;0.63;;;0.20;;
2289;SDS011;1153;47.986;7.898;2023-11-21T05:03:12;0.40;;;0.20;;
2289;SDS011;1153;47.986;7.898;2023-11-21T05:05:37;0.60;;;0.20;;
2289;SDS011;1153;47.986;7.898;2023-11-21T05:08:03;3.53;;;0.23;;
2289;SDS011;1153;47.986;7.898;2023-11-21T05:10:29;1.70;;;0.20;;
2289;SDS011;1153;47.986;7.898;2023-11-21T05:12:55;0.60;;;0.20;;
2289;SDS011;1153;47.986;7.898;2023-11-21T05:15:20;1.13;;;0.20;;
2289;SDS011;1153;47.986;7.898;2023-11-21T05:17:46;0.80;;;0.23;;
2289;SDS011;1153;47.986;7.898;2023-11-21T05:20:14;1.53;;;0.27;;
2289;SDS011;1153;47.986;7.898;2023-11-21T05:22:42;0.50;;;0.20;;
2289;SDS011;1153;47.986;7.898;2023-11-21T05:25:08;0.70;;;0.30;;
2289;SDS011;1153;47.986;7.898;2023-11-21T05:27:33;1.10;;;0.30;;
2289;SDS011;1153;47.986;7.898;2023-11-21T05:29:59;2.30;;;0.30;;
2289;SDS011;1153;47.986;7.898;2023-11-21T05:32:24;0.43;;;0.20;;
2289;SDS011;1153;47.986;7.898;2023-11-21T05:34:49;0.47;;;0.20;;
2289;SDS011;1153;47.986;7.898;2023-11-21T05:37:15;0.50;;;0.30;;
2289;SDS011;1153;47.986;7.898;2023-11-21T05:39:40;0.70;;;0.30;;
2289;SDS011;1153;47.986;7.898;2023-11-21T05:42:05;0.57;;;0.20;;
2289;SDS011;1153;47.986;7.898;2023-11-21T05:44:31;1.63;;;0.23;;
2289;SDS011;1153;47.986;7.898;2023-11-21T05:46:56;0.60;;;0.20;;
2289;SDS011;1153;47.986;7.898;2023-11-21T05:49:23;0.60;;;0.37;;
2289;SDS011;1153;47.986;7.898;2023-11-21T05:51:51;0.73;;;0.30;;
2289;SDS011;1153;47.986;7.898;2023-11-21T05:54:18;0.70;;;0.30;;
2289;SDS011;1153;47.986;7.898;2023-11-21T05:56:44;0.40;;;0.20;;
2289;SDS011;1153;47.986;7.898;2023-11-21T05:59:09;3.80;;;0.30;;
2289;SDS011;1153;47.986;7.898;2023-11-21T06:01:35;0.50;;;0.30;;
2289;SDS011;1153;47.986;7.898;2023-11-21T06:04:03;0.60;;;0.30;;
2289;SDS011;1153;47.986;7.898;2023-11-21T06:06:28;0.40;;;0.20;;
2289;SDS011;1153;47.986;7.898;2023-11-21T06:08:53;1.13;;;0.30;;
2289;SDS011;1153;47.986;7.898;2023-11-21T06:11:19;0.60;;;0.20;;
2289;SDS011;1153;47.986;7.898;2023-11-21T06:13:44;0.50;;;0.40;;
2289;SDS011;1153;47.986;7.898;2023-11-21T06:16:09;0.70;;;0.30;;
2289;SDS011;1153;47.986;7.898;2023-11-21T06:18:34;0.60;;;0.20;;
2289;SDS011;1153;47.986;7.898;2023-11-21T06:21:00;2.80;;;0.30;;
2289;SDS011;1153;47.986;7.898;2023-11-21T06:23:25;0.60;;;0.30;;
2289;SDS011;1153;47.986;7.898;2023-11-21T06:25:50;0.60;;;0.40;;
2289;SDS011;1153;47.986;7.898;2023-11-21T06:28:16;0.40;;;0.30;;
2289;SDS011;1153;47.986;7.898;2023-11-21T06:30:42;0.80;;;0.40;;
2289;SDS011;1153;47.986;7.898;2023-11-21T06:33:09;0.83;;;0.37;;
2289;SDS011;1153;47.986;7.898;2023-11-21T06:35:34;1.70;;;0.30;;
2289;SDS011;1153;47.986;7.898;2023-11-21T06:38:00;1.47;;;0.30;;
2289;SDS011;1153;47.986;7.898;2023-11-21T06:40:25;0.60;;;0.30;;
2289;SDS011;1153;47.986;7.898;2023-11-21T06:42:50;0.60;;;0.30;;
2289;SDS011;1153;47.986;7.898;2023-11-21T06:45:15;0.50;;;0.30;;
2289;SDS011;1153;47.986;7.898;2023-11-21T06:47:41;1.07;;;0.30;;
2289;SDS011;1153;47.986;7.898;2023-11-21T06:50:06;0.50;;;0.30;;
2289;SDS011;1153;47.986;7.898;2023-11-21T06:52:32;1.80;;;0.40;;
2289;SDS011;1153;47.986;7.898;2023-11-21T06:54:57;1.00;;;0.60;;
2289;SDS011;1153;47.986;7.898;2023-11-21T06:57:22;2.40;;;0.60;;
2289;SDS011;1153;47.986;7.898;2023-11-21T06:59:48;0.70;;;0.40;;
2289;SDS011;1153;47.986;7.898;2023-11-21T07:02:13;2.80;;;1.50;;
2289;SDS011;1153;47.986;7.898;2023-11-21T07:04:39;2.20;;;2.07;;
2289;SDS011;1153;47.986;7.898;2023-11-21T07:07:04;2.90;;;2.70;;
2289;SDS011;1153;47.986;7.898;2023-11-21T07:09:30;2.63;;;2.53;;
2289;SDS011;1153;47.986;7.898;2023-11-21T07:11:56;2.13;;;1.97;;
2289;SDS011;1153;47.986;7.898;2023-11-21T07:14:21;4.20;;;2.50;;
2289;SDS011;1153;47.986;7.898;2023-11-21T07:16:46;1.90;;;1.20;;
2289;SDS011;1153;47.986;7.898;2023-11-21T07:19:12;1.40;;;0.97;;
2289;SDS011;1153;47.986;7.898;2023-11-21T07:21:37;1.57;;;1.27;;
2289;SDS011;1153;47.986;7.898;2023-11-21T07:24:03;2.27;;;1.43;;
2289;SDS011;1153;47.986;7.898;2023-11-21T07:26:29;1.30;;;1.03;;
2289;SDS011;1153;47.986;7.898;2023-11-21T07:28:54;2.60;;;1.60;;
2289;SDS011;1153;47.986;7.898;2023-11-21T07:31:19;1.30;;;0.90;;
2289;SDS011;1153;47.986;7.898;2023-11-21T07:33:47;4.07;;;1.43;;
2289;SDS011;1153;47.986;7.898;2023-11-21T07:36:13;1.00;;;0.83;;
2289;SDS011;1153;47.986;7.898;2023-11-21T07:38:39;1.73;;;1.20;;
2289;SDS011;1153;47.986;7.898;2023-11-21T07:41:05;1.00;;;0.50;;
2289;SDS011;1153;47.986;7.898;2023-11-21T07:43:30;1.67;;;1.57;;
2289;SDS011;1153;47.986;7.898;2023-11-21T07:46:00;4.40;;;0.50;;
2289;SDS011;1153;47.986;7.898;2023-11-21T07:48:25;0.90;;;0.40;;
2289;SDS011;1153;47.986;7.898;2023-11-21T07:50:51;0.90;;;0.43;;
2289;SDS011;1153;47.986;7.898;2023-11-21T07:53:16;0.80;;;0.57;;
2289;SDS011;1153;47.986;7.898;2023-11-21T07:55:41;0.82;;;0.40;;
2289;SDS011;1153;47.986;7.898;2023-11-21T07:58:07;1.10;;;0.57;;
2289;SDS011;1153;47.986;7.898;2023-11-21T08:00:32;2.33;;;1.00;;
2289;SDS011;1153;47.986;7.898;2023-11-21T08:02:58;3.93;;;0.97;;
2289;SDS011;1153;47.986;7.898;2023-11-21T08:05:23;1.87;;;0.80;;
2289;SDS011;1153;47.986;7.898;2023-11-21T08:07:49;4.60;;;1.40;;
2289;SDS011;1153;47.986;7.898;2023-11-21T08:10:14;1.48;;;1.25;;
2289;SDS011;1153;47.986;7.898;2023-11-21T08:12:41;1.00;;;0.80;;
2289;SDS011;1153;47.986;7.898;2023-11-21T08:15:07;0.60;;;0.40;;
2289;SDS011;1153;47.986;7.898;2023-11-21T08:17:33;1.73;;;0.70;;
2289;SDS011;1153;47.986;7.898;2023-11-21T08:19:58;1.40;;;0.50;;
2289;SDS011;1153;47.986;7.898;2023-11-21T08:22:23;0.90;;;0.40;;
2289;SDS011;1153;47.986;7.898;2023-11-21T08:24:49;1.67;;;0.70;;
2289;SDS011;1153;47.986;7.898;2023-11-21T08:27:15;0.83;;;0.70;;
2289;SDS011;1153;47.986;7.898;2023-11-21T08:29:41;1.00;;;0.70;;
2289;SDS011;1153;47.986;7.898;2023-11-21T08:32:07;0.60;;;0.40;;
2289;SDS011;1153;47.986;7.898;2023-11-21T08:34:32;1.23;;;0.47;;
2289;SDS011;1153;47.986;7.898;2023-11-21T08:36:57;1.53;;;0.40;;
2289;SDS011;1153;47.986;7.898;2023-11-21T08:39:22;0.90;;;0.60;;
2289;SDS011;1153;47.986;7.898;2023-11-21T08:41:49;0.90;;;0.60;;
2289;SDS011;1153;47.986;7.898;2023-11-21T08:44:14;0.60;;;0.37;;
2289;SDS011;1153;47.986;7.898;2023-11-21T08:46:41;1.63;;;0.50;;
2289;SDS011;1153;47.986;7.898;2023-11-21T08:49:08;1.23;;;0.40;;
2289;SDS011;1153;47.986;7.898;2023-11-21T08:51:33;0.60;;;0.30;;
2289;SDS011;1153;47.986;7.898;2023-11-21T08:53:59;1.27;;;0.50;;
2289;SDS011;1153;47.986;7.898;2023-11-21T08:56:25;0.70;;;0.60;;
2289;SDS011;1153;47.986;7.898;2023-11-21T08:58:51;0.83;;;0.60;;
2289;SDS011;1153;47.986;7.898;2023-11-21T09:01:16;1.10;;;0.43;;
2289;SDS011;1153;47.986;7.898;2023-11-21T09:03:42;0.80;;;0.40;;
2289;SDS011;1153;47.986;7.898;2023-11-21T09:06:08;0.90;;;0.70;;
2289;SDS011;1153;47.986;7.898;2023-11-21T09:08:34;0.93;;;0.63;;
2289;SDS011;1153;47.986;7.898;2023-11-21T09:11:00;0.77;;;0.50;;
2289;SDS011;1153;47.986;7.898;2023-11-21T09:13:25;0.80;;;0.40;;
2289;SDS011;1153;47.986;7.898;2023-11-21T09:15:50;1.73;;;1.03;;
2289;SDS011;1153;47.986;7.898;2023-11-21T09:18:16;4.87;;;1.73;;
2289;SDS011;1153;47.986;7.898;2023-11-21T09:20:41;2.00;;;1.63;;
2289;SDS011;1153;47.986;7.898;2023-11-21T09:23:08;0.90;;;0.60;;
2289;SDS011;1153;47.986;7.898;2023-11-21T09:25:34;0.67;;;0.40;;
2289;SDS011;1153;47.986;7.898;2023-11-21T09:27:59;2.15;;;0.47;;
2289;SDS011;1153;47.986;7.898;2023-11-21T09:30:24;1.90;;;0.90;;
2289;SDS011;1153;47.986;7.898;2023-11-21T09:32:50;0.73;;;0.50;;
2289;SDS011;1153;47.986;7.898;2023-11-21T09:35:15;0.70;;;0.40;;
2289;SDS011;1153;47.986;7.898;2023-11-21T09:37:42;0.80;;;0.50;;
2289;SDS011;1153;47.986;7.898;2023-11-21T09:40:09;1.53;;;0.60;;
2289;SDS011;1153;47.986;7.898;2023-11-21T09:42:43;1.53;;;0.60;;
2289;SDS011;1153;47.986;7.898;2023-11-21T09:45:18;1.63;;;0.40;;
2289;SDS011;1153;47.986;7.898;2023-11-21T09:47:46;0.87;;;0.50;;
2289;SDS011;1153;47.986;7.898;2023-11-21T09:50:11;0.73;;;0.50;;
2289;SDS011;1153;47.986;7.898;2023-11-21T09:52:53;1.03;;;0.50;;
2289;SDS011;1153;47.986;7.898;2023-11-21T09:55:19;2.20;;;0.80;;
2289;SDS011;1153;47.986;7.898;2023-11-21T09:57:46;2.50;;;0.70;;
2289;SDS011;1153;47.986;7.898;2023-11-21T10:00:13;4.73;;;1.00;;
2289;SDS011;1153;47.986;7.898;2023-11-21T10:02:42;1.00;;;0.70;;
2289;SDS011;1153;47.986;7.898;2023-11-21T10:05:07;0.87;;;0.40;;
2289;SDS011;1153;47.986;7.898;2023-11-21T10:07:34;0.80;;;0.50;;
2289;SDS011;1153;47.986;7.898;2023-11-21T10:10:00;0.87;;;0.40;;
2289;SDS011;1153;47.986;7.898;2023-11-21T10:12:25;1.00;;;0.40;;
2289;SDS011;1153;47.986;7.898;2023-11-21T10:14:51;0.60;;;0.40;;
2289;SDS011;1153;47.986;7.898;2023-11-21T10:17:18;0.90;;;0.40;;
2289;SDS011;1153;47.986;7.898;2023-11-21T10:19:46;0.73;;;0.50;;
2289;SDS011;1153;47.986;7.898;2023-11-21T10:22:12;0.60;;;0.40;;
2289;SDS011;1153;47.986;7.898;2023-11-21T10:24:37;0.53;;;0.30;;
2289;SDS011;1153;47.986;7.898;2023-11-21T10:27:03;2.43;;;0.30;;
2289;SDS011;1153;47.986;7.898;2023-11-21T10:29:29;2.20;;;0.40;;
2289;SDS011;1153;47.986;7.898;2023-11-21T10:31:54;0.60;;;0.30;;
2289;SDS011;1153;47.986;7.898;2023-11-21T10:34:20;0.70;;;0.40;;
2289;SDS011;1153;47.986;7.898;2023-11-21T10:36:45;0.80;;;0.50;;
2289;SDS011;1153;47.986;7.898;2023-11-21T10:39:20;2.27;;;0.50;;
2289;SDS011;1153;47.986;7.898;2023-11-21T10:41:49;1.00;;;0.50;;
2289;SDS011;1153;47.986;7.898;2023-11-21T10:44:15;0.80;;;0.50;;
2289;SDS011;1153;47.986;7.898;2023-11-21T10:46:45;0.90;;;0.50;;
2289;SDS011;1153;47.986;7.898;2023-11-21T10:49:15;0.73;;;0.47;;
2289;SDS011;1153;47.986;7.898;2023-11-21T10:51:43;0.93;;;0.57;;
2289;SDS011;1153;47.986;7.898;2023-11-21T10:54:08;0.67;;;0.43;;
2289;SDS011;1153;47.986;7.898;2023-11-21T10:56:33;0.82;;;0.45;;
2289;SDS011;1153;47.986;7.898;2023-11-21T10:59:00;0.90;;;0.40;;
2289;SDS011;1153;47.986;7.898;2023-11-21T11:01:26;0.60;;;0.30;;
2289;SDS011;1153;47.986;7.898;2023-11-21T11:03:54;1.17;;;0.40;;
2289;SDS011;1153;47.986;7.898;2023-11-21T11:06:20;0.80;;;0.40;;
2289;SDS011;1153;47.986;7.898;2023-11-21T11:08:46;0.60;;;0.40;;
2289;SDS011;1153;47.986;7.898;2023-11-21T11:11:12;0.60;;;0.40;;
2289;SDS011;1153;47.986;7.898;2023-11-21T11:13:39;0.63;;;0.30;;
2289;SDS011;1153;47.986;7.898;2023-11-21T11:16:07;0.70;;;0.30;;
2289;SDS011;1153;47.986;7.898;2023-11-21T11:18:35;0.70;;;0.30;;
2289;SDS011;1153;47.986;7.898;2023-11-21T11:21:07;0.93;;;0.40;;
2289;SDS011;1153;47.986;7.898;2023-11-21T11:31:58;0.70;;;0.43;;
2289;SDS011;1153;47.986;7.898;2023-11-21T11:34:30;0.80;;;0.40;;
2289;SDS011;1153;47.986;7.898;2023-11-21T11:39:36;0.90;;;0.50;;
2289;SDS011;1153;47.986;7.898;2023-11-21T11:42:02;1.00;;;0.50;;
2289;SDS011;1153;47.986;7.898;2023-11-21T11:47:32;0.70;;;0.30;;
2289;SDS011;1153;47.986;7.898;2023-11-21T11:52:43;1.13;;;0.40;;
2289;SDS011;1153;47.986;7.898;2023-11-21T11:55:13;0.70;;;0.40;;
2289;SDS011;1153;47.986;7.898;2023-11-21T11:57:39;0.50;;;0.30;;
2289;SDS011;1153;47.986;7.898;2023-11-21T12:00:08;0.50;;;0.30;;
2289;SDS011;1153;47.986;7.898;2023-11-21T12:02:40;0.63;;;0.50;;
2289;SDS011;1153;47.986;7.898;2023-11-21T12:05:09;3.33;;;0.40;;
2289;SDS011;1153;47.986;7.898;2023-11-21T12:07:44;0.80;;;0.40;;
2289;SDS011;1153;47.986;7.898;2023-11-21T12:10:11;0.87;;;0.40;;
2289;SDS011;1153;47.986;7.898;2023-11-21T12:12:37;0.83;;;0.40;;
2289;SDS011;1153;47.986;7.898;2023-11-21T12:15:03;0.90;;;0.80;;
2289;SDS011;1153;47.986;7.898;2023-11-21T12:17:30;1.87;;;0.50;;
2289;SDS011;1153;47.986;7.898;2023-11-21T12:20:01;0.50;;;0.30;;
2289;SDS011;1153;47.986;7.898;2023-11-21T12:22:26;0.50;;;0.30;;
2289;SDS011;1153;47.986;7.898;2023-11-21T12:24:51;0.80;;;0.30;;
2289;SDS011;1153;47.986;7.898;2023-11-21T12:27:16;0.60;;;0.20;;
2289;SDS011;1153;47.986;7.898;2023-11-21T12:29:42;0.50;;;0.30;;
2289;SDS011;1153;47.986;7.898;2023-11-21T12:32:07;0.60;;;0.40;;
2289;SDS011;1153;47.986;7.898;2023-11-21T12:34:32;0.70;;;0.40;;
2289;SDS011;1153;47.986;7.898;2023-11-21T12:36:58;0.50;;;0.30;;
2289;SDS011;1153;47.986;7.898;2023-11-21T12:39:24;0.80;;;0.40;;
2289;SDS011;1153;47.986;7.898;2023-11-21T12:41:49;0.90;;;0.30;;
2289;SDS011;1153;47.986;7.898;2023-11-21T12:44:14;1.00;;;0.50;;
2289;SDS011;1153;47.986;7.898;2023-11-21T12:46:41;0.70;;;0.40;;
2289;SDS011;1153;47.986;7.898;2023-11-21T12:49:06;0.53;;;0.30;;
2289;SDS011;1153;47.986;7.898;2023-11-21T12:51:31;1.50;;;0.40;;
2289;SDS011;1153;47.986;7.898;2023-11-21T12:53:56;1.37;;;1.07;;
2289;SDS011;1153;47.986;7.898;2023-11-21T12:56:23;0.70;;;0.40;;
2289;SDS011;1153;47.986;7.898;2023-11-21T12:58:48;0.90;;;0.60;;
2289;SDS011;1153;47.986;7.898;2023-11-21T13:01:15;2.13;;;0.50;;
2289;SDS011;1153;47.986;7.898;2023-11-21T13:03:45;0.80;;;0.70;;
2289;SDS011;1153;47.986;7.898;2023-11-21T13:06:13;0.90;;;0.60;;
2289;SDS011;1153;47.986;7.898;2023-11-21T13:08:38;0.70;;;0.50;;
2289;SDS011;1153;47.986;7.898;2023-11-21T13:11:04;1.00;;;0.70;;
2289;SDS011;1153;47.986;7.898;2023-11-21T13:13:30;1.20;;;0.60;;
2289;SDS011;1153;47.986;7.898;2023-11-21T13:15:57;2.13;;;0.60;;
2289;SDS011;1153;47.986;7.898;2023-11-21T13:18:25;0.87;;;0.70;;
2289;SDS011;1153;47.986;7.898;2023-11-21T13:20:57;0.90;;;0.60;;
2289;SDS011;1153;47.986;7.898;2023-11-21T13:23:22;2.20;;;0.80;;
2289;SDS011;1153;47.986;7.898;2023-11-21T13:25:48;0.90;;;0.63;;
2289;SDS011;1153;47.986;7.898;2023-11-21T13:28:14;0.80;;;0.60;;
2289;SDS011;1153;47.986;7.898;2023-11-21T13:30:46;2.13;;;0.70;;
2289;SDS011;1153;47.986;7.898;2023-11-21T13:33:13;0.80;;;0.50;;
2289;SDS011;1153;47.986;7.898;2023-11-21T13:35:42;1.80;;;1.70;;
2289;SDS011;1153;47.986;7.898;2023-11-21T13:38:13;1.33;;;1.23;;
2289;SDS011;1153;47.986;7.898;2023-11-21T13:40:38;1.60;;;1.10;;
2289;SDS011;1153;47.986;7.898;2023-11-21T13:43:14;1.10;;;0.90;;
2289;SDS011;1153;47.986;7.898;2023-11-21T13:45:40;1.10;;;1.00;;
2289;SDS011;1153;47.986;7.898;2023-11-21T13:48:06;0.90;;;0.80;;
2289;SDS011;1153;47.986;7.898;2023-11-21T13:50:35;1.50;;;1.13;;
2289;SDS011;1153;47.986;7.898;2023-11-21T13:53:01;1.20;;;1.00;;
2289;SDS011;1153;47.986;7.898;2023-11-21T13:55:35;1.83;;;0.83;;
2289;SDS011;1153;47.986;7.898;2023-11-21T13:58:01;0.93;;;0.70;;
2289;SDS011;1153;47.986;7.898;2023-11-21T14:00:28;1.50;;;0.80;;
2289;SDS011;1153;47.986;7.898;2023-11-21T14:03:09;0.80;;;0.50;;
2289;SDS011;1153;47.986;7.898;2023-11-21T14:05:42;1.10;;;0.70;;
2289;SDS011;1153;47.986;7.898;2023-11-21T14:08:08;1.00;;;0.63;;
2289;SDS011;1153;47.986;7.898;2023-11-21T14:10:33;3.13;;;0.80;;
2289;SDS011;1153;47.986;7.898;2023-11-21T14:13:15;0.87;;;0.50;;
2289;SDS011;1153;47.986;7.898;2023-11-21T14:15:41;3.20;;;1.10;;
2289;SDS011;1153;47.986;7.898;2023-11-21T14:18:08;0.80;;;0.50;;
2289;SDS011;1153;47.986;7.898;2023-11-21T14:20:36;0.93;;;0.60;;
2289;SDS011;1153;47.986;7.898;2023-11-21T14:23:02;1.20;;;0.70;;
2289;SDS011;1153;47.986;7.898;2023-11-21T14:25:27;0.90;;;0.43;;
2289;SDS011;1153;47.986;7.898;2023-11-21T14:27:53;0.90;;;0.50;;
2289;SDS011;1153;47.986;7.898;2023-11-21T14:30:18;2.70;;;0.73;;
2289;SDS011;1153;47.986;7.898;2023-11-21T14:32:46;0.90;;;0.60;;
2289;SDS011;1153;47.986;7.898;2023-11-21T14:35:11;1.90;;;0.77;;
2289;SDS011;1153;47.986;7.898;2023-11-21T14:37:36;5.53;;;0.80;;
2289;SDS011;1153;47.986;7.898;2023-11-21T14:40:01;1.07;;;0.70;;
2289;SDS011;1153;47.986;7.898;2023-11-21T14:42:29;1.00;;;0.70;;
2289;SDS011;1153;47.986;7.898;2023-11-21T14:44:54;1.10;;;0.98;;
2289;SDS011;1153;47.986;7.898;2023-11-21T14:47:25;1.00;;;0.57;;
2289;SDS011;1153;47.986;7.898;2023-11-21T14:49:52;0.73;;;0.43;;
2289;SDS011;1153;47.986;7.898;2023-11-21T14:52:24;1.67;;;1.33;;
2289;SDS011;1153;47.986;7.898;2023-11-21T14:55:02;1.40;;;1.30;;
2289;SDS011;1153;47.986;7.898;2023-11-21T14:57:50;1.53;;;1.00;;
2289;SDS011;1153;47.986;7.898;2023-11-21T15:00:16;1.00;;;0.80;;
2289;SDS011;1153;47.986;7.898;2023-11-21T15:03:04;1.27;;;1.10;;
2289;SDS011;1153;47.986;7.898;2023-11-21T15:05:30;1.40;;;1.30;;
2289;SDS011;1153;47.986;7.898;2023-11-21T15:07:55;3.60;;;1.40;;
2289;SDS011;1153;47.986;7.898;2023-11-21T15:10:23;2.50;;;0.80;;
2289;SDS011;1153;47.986;7.898;2023-11-21T15:13:03;1.53;;;1.43;;
2289;SDS011;1153;47.986;7.898;2023-11-21T15:15:28;1.00;;;0.73;;
2289;SDS011;1153;47.986;7.898;2023-11-21T15:17:55;0.90;;;0.67;;
2289;SDS011;1153;47.986;7.898;2023-11-21T15:20:20;1.10;;;0.85;;
2289;SDS011;1153;47.986;7.898;2023-11-21T15:22:47;1.53;;;0.50;;
2289;SDS011;1153;47.986;7.898;2023-11-21T15:25:12;1.30;;;0.93;;
2289;SDS011;1153;47.986;7.898;2023-11-21T15:27:38;1.30;;;0.60;;